createdAt,value
2022-10-05T00:00:21.725Z,88.77
2022-10-05T00:02:49.557Z,89.56
2022-10-05T00:05:27.360Z,89.63
2022-10-05T00:07:56.602Z,89.22
2022-10-05T00:10:23.710Z,88.99
2022-10-05T00:12:50.252Z,89.15
2022-10-05T00:15:20.703Z,89.95
2022-10-05T00:17:47.263Z,90.09
2022-10-05T00:20:18.238Z,90.35
2022-10-05T00:22:44.927Z,90.71
2022-10-05T00:25:15.802Z,90.21
2022-10-05T00:27:42.809Z,89.79
2022-10-05T00:30:17.889Z,89.56
2022-10-05T00:32:45.235Z,89.26
2022-10-05T00:35:13.692Z,88.50
2022-10-05T00:37:40.458Z,87.68
2022-10-05T00:40:44.501Z,88.64
2022-10-05T00:43:19.996Z,89.75
2022-10-05T00:46:00.430Z,90.61
2022-10-05T00:49:15.135Z,91.19
2022-10-05T00:51:50.295Z,91.21
2022-10-05T00:54:38.232Z,91.43
2022-10-05T00:57:26.305Z,91.48
2022-10-05T01:00:17.473Z,92.07
2022-10-05T01:03:28.652Z,92.37
2022-10-05T01:06:17.053Z,92.61
2022-10-05T01:09:16.116Z,92.93
2022-10-05T01:11:52.465Z,94.21
2022-10-05T01:14:29.927Z,94.67
2022-10-05T01:17:05.968Z,95.18
2022-10-05T01:20:00.550Z,96.02
2022-10-05T01:22:38.837Z,97.78
2022-10-05T01:25:21.228Z,97.49
2022-10-05T01:28:17.077Z,99.09
2022-10-05T01:30:53.650Z,99.76
2022-10-05T01:33:27.420Z,100.00
2022-10-05T01:36:21.392Z,100.00
2022-10-05T01:39:14.482Z,100.00
2022-10-05T01:41:56.646Z,100.00
2022-10-05T01:44:39.142Z,100.00
2022-10-05T01:47:24.375Z,100.00
2022-10-05T01:50:07.869Z,100.00
2022-10-05T01:52:48.656Z,100.00
2022-10-05T01:55:15.208Z,100.00
2022-10-05T01:58:06.086Z,100.00
2022-10-05T02:00:39.713Z,100.00
2022-10-05T02:03:18.259Z,100.00
2022-10-05T02:05:52.426Z,100.00
2022-10-05T02:08:27.488Z,100.00
2022-10-05T02:11:04.567Z,100.00
2022-10-05T02:13:35.303Z,100.00
2022-10-05T02:16:07.508Z,100.00
2022-10-05T02:18:47.209Z,100.00
2022-10-05T02:21:14.251Z,100.00
2022-10-05T02:23:45.076Z,100.00
2022-10-05T02:26:12.713Z,100.00
2022-10-05T02:28:51.274Z,100.00
2022-10-05T02:31:24.125Z,100.00
2022-10-05T02:33:50.763Z,100.00
2022-10-05T02:36:23.916Z,100.00
2022-10-05T02:38:50.375Z,100.00
2022-10-05T02:41:32.199Z,100.00
2022-10-05T02:44:10.897Z,100.00
2022-10-05T02:46:43.271Z,100.00
2022-10-05T02:49:47.613Z,100.00
2022-10-05T02:52:26.879Z,100.00
2022-10-05T02:55:07.098Z,100.00
2022-10-05T02:57:47.260Z,100.00
2022-10-05T03:00:18.318Z,100.00
2022-10-05T03:02:55.786Z,100.00
2022-10-05T03:05:26.188Z,100.00
2022-10-05T03:08:01.095Z,100.00
2022-10-05T03:10:46.011Z,100.00
2022-10-05T03:13:33.957Z,100.00
2022-10-05T03:16:25.069Z,100.00
2022-10-05T03:19:27.360Z,100.00
2022-10-05T03:22:15.817Z,100.00
2022-10-05T03:25:20.020Z,100.00
2022-10-05T03:27:58.041Z,100.00
2022-10-05T03:30:26.691Z,100.00
2022-10-05T03:33:15.159Z,100.00
2022-10-05T03:36:16.985Z,100.00
2022-10-05T03:38:50.209Z,100.00
2022-10-05T03:41:40.102Z,100.00
2022-10-05T03:44:16.693Z,100.00
2022-10-05T03:47:11.687Z,100.00
2022-10-05T03:49:57.474Z,100.00
2022-10-05T03:52:38.334Z,100.00
2022-10-05T03:55:18.583Z,100.00
2022-10-05T03:57:47.495Z,100.00
2022-10-05T04:00:17.757Z,100.00
2022-10-05T04:02:58.074Z,100.00
2022-10-05T04:05:32.630Z,100.00
2022-10-05T04:08:02.827Z,100.00
2022-10-05T04:11:20.522Z,100.00
2022-10-05T04:13:52.798Z,100.00
2022-10-05T04:16:31.068Z,100.00
2022-10-05T04:19:19.417Z,100.00
2022-10-05T04:21:59.499Z,100.00
2022-10-05T04:24:36.770Z,100.00
2022-10-05T04:27:13.561Z,100.00
2022-10-05T04:29:42.787Z,100.00
2022-10-05T04:32:22.611Z,100.00
2022-10-05T04:35:27.094Z,100.00
2022-10-05T04:38:11.755Z,100.00
2022-10-05T04:41:17.245Z,100.00
2022-10-05T04:43:59.239Z,100.00
2022-10-05T04:46:42.903Z,100.00
2022-10-05T04:49:31.512Z,100.00
2022-10-05T04:52:10.201Z,100.00
2022-10-05T04:55:04.825Z,100.00
2022-10-05T04:57:53.236Z,100.00
2022-10-05T05:00:25.462Z,100.00
2022-10-05T05:03:03.642Z,100.00
2022-10-05T05:05:58.693Z,100.00
2022-10-05T05:08:57.465Z,100.00
2022-10-05T05:12:00.427Z,100.00
2022-10-05T05:14:55.894Z,100.00
2022-10-05T05:17:35.376Z,100.00
2022-10-05T05:20:39.181Z,100.00
2022-10-05T05:23:30.789Z,100.00
2022-10-05T05:26:15.189Z,100.00
2022-10-05T05:29:02.658Z,100.00
2022-10-05T05:31:50.171Z,100.00
2022-10-05T05:34:36.647Z,100.00
2022-10-05T05:38:00.760Z,100.00
2022-10-05T05:40:42.267Z,100.00
2022-10-05T05:43:35.115Z,100.00
2022-10-05T05:46:16.938Z,100.00
2022-10-05T05:48:47.315Z,100.00
2022-10-05T05:51:23.491Z,100.00
2022-10-05T05:54:00.002Z,100.00
2022-10-05T05:56:42.566Z,100.00
2022-10-05T05:59:32.899Z,100.00
2022-10-05T06:02:16.209Z,100.00
2022-10-05T06:04:52.504Z,100.00
2022-10-05T06:07:29.462Z,100.00
2022-10-05T06:10:04.876Z,100.00
2022-10-05T06:12:44.253Z,100.00
2022-10-05T06:15:55.336Z,100.00
2022-10-05T06:18:23.239Z,100.00
2022-10-05T06:21:11.332Z,100.00
2022-10-05T06:23:48.974Z,100.00
2022-10-05T06:26:29.037Z,100.00
2022-10-05T06:29:04.040Z,100.00
2022-10-05T06:32:13.665Z,100.00
2022-10-05T06:35:06.237Z,100.00
2022-10-05T06:37:56.067Z,100.00
2022-10-05T06:40:25.578Z,100.00
2022-10-05T06:43:10.859Z,100.00
2022-10-05T06:45:40.558Z,100.00
2022-10-05T06:48:22.753Z,100.00
2022-10-05T06:51:15.195Z,100.00
2022-10-05T06:54:14.522Z,100.00
2022-10-05T06:56:59.961Z,100.00
2022-10-05T06:59:46.945Z,100.00
2022-10-05T07:02:31.782Z,100.00
2022-10-05T07:05:17.267Z,100.00
2022-10-05T07:07:46.800Z,100.00
2022-10-05T07:10:32.351Z,100.00
2022-10-05T07:13:14.079Z,100.00
2022-10-05T07:16:08.227Z,100.00
2022-10-05T07:19:07.849Z,100.00
2022-10-05T07:21:39.559Z,100.00
2022-10-05T07:24:47.546Z,100.00
2022-10-05T07:27:19.820Z,99.51
2022-10-05T07:30:04.830Z,96.76
2022-10-05T07:32:40.519Z,94.78
2022-10-05T07:35:30.580Z,93.59
2022-10-05T07:38:05.625Z,90.68
2022-10-05T07:40:45.067Z,90.65
2022-10-05T07:43:45.246Z,88.21
2022-10-05T07:46:26.758Z,87.16
2022-10-05T07:49:00.739Z,86.14
2022-10-05T07:51:41.361Z,84.95
2022-10-05T07:54:14.254Z,86.02
2022-10-05T07:56:44.092Z,85.96
2022-10-05T07:59:21.987Z,85.74
2022-10-05T08:01:54.808Z,84.96
2022-10-05T08:04:27.786Z,83.39
2022-10-05T08:06:59.948Z,80.48
2022-10-05T08:09:35.635Z,81.26
2022-10-05T08:12:37.127Z,81.23
2022-10-05T08:15:14.346Z,80.17
2022-10-05T08:17:50.115Z,79.33
2022-10-05T08:20:32.511Z,79.81
2022-10-05T08:23:20.912Z,80.73
2022-10-05T08:26:06.754Z,79.63
2022-10-05T08:28:39.313Z,80.09
2022-10-05T08:31:29.856Z,77.75
2022-10-05T08:34:35.344Z,76.04
2022-10-05T08:37:13.496Z,77.90
2022-10-05T08:39:49.233Z,76.80
2022-10-05T08:42:35.128Z,76.86
2022-10-05T08:45:21.482Z,76.83
2022-10-05T08:47:57.838Z,77.35
2022-10-05T08:50:59.418Z,77.39
2022-10-05T08:53:32.042Z,76.67
2022-10-05T08:56:27.814Z,76.75
2022-10-05T08:59:10.559Z,76.22
2022-10-05T09:02:02.249Z,76.15
2022-10-05T09:05:06.549Z,73.90
2022-10-05T09:08:03.339Z,72.64
2022-10-05T09:10:45.244Z,70.12
2022-10-05T09:13:31.450Z,69.37
2022-10-05T09:16:27.287Z,70.25
2022-10-05T09:18:59.906Z,68.59
2022-10-05T09:21:54.077Z,68.58
2022-10-05T09:24:28.499Z,67.13
2022-10-05T09:27:21.180Z,66.63
2022-10-05T09:29:50.634Z,65.96
2022-10-05T09:32:55.417Z,65.64
2022-10-05T09:35:25.496Z,65.38
2022-10-05T09:38:11.557Z,64.84
2022-10-05T09:41:11.881Z,64.76
2022-10-05T09:43:44.548Z,63.59
2022-10-05T09:46:23.415Z,64.08
2022-10-05T09:49:24.004Z,64.32
2022-10-05T09:52:21.457Z,62.80
2022-10-05T09:55:22.091Z,63.30
2022-10-05T09:58:17.247Z,64.33
2022-10-05T10:01:22.126Z,61.48
2022-10-05T10:04:26.842Z,61.21
2022-10-05T10:07:16.895Z,62.37
2022-10-05T10:10:18.044Z,62.03
2022-10-05T10:13:06.514Z,63.33
2022-10-05T10:16:12.341Z,62.31
2022-10-05T10:18:57.728Z,62.25
2022-10-05T10:21:42.403Z,62.31
2022-10-05T10:24:30.764Z,65.64
2022-10-05T10:27:05.617Z,67.52
2022-10-05T10:29:47.918Z,67.40
2022-10-05T10:32:52.277Z,66.71
2022-10-05T10:35:31.082Z,66.87
2022-10-05T10:38:06.775Z,65.65
2022-10-05T10:41:04.527Z,65.07
2022-10-05T10:43:59.061Z,65.10
2022-10-05T10:46:44.857Z,62.06
2022-10-05T10:49:20.533Z,62.14
2022-10-05T10:51:59.286Z,62.35
2022-10-05T10:54:46.940Z,62.15
2022-10-05T10:57:36.230Z,61.34
2022-10-05T11:00:15.816Z,62.40
2022-10-05T11:03:13.353Z,62.69
2022-10-05T11:06:17.823Z,62.36
2022-10-05T11:09:12.284Z,62.41
2022-10-05T11:11:51.786Z,62.10
2022-10-05T11:15:05.633Z,60.71
2022-10-05T11:17:49.844Z,60.73
2022-10-05T11:20:40.907Z,61.12
2022-10-05T11:23:38.804Z,62.09
2022-10-05T11:26:17.738Z,62.27
2022-10-05T11:29:23.071Z,62.99
2022-10-05T11:32:18.170Z,62.80
2022-10-05T11:35:05.442Z,63.66
2022-10-05T11:37:50.285Z,63.60
2022-10-05T11:40:54.012Z,62.94
2022-10-05T11:44:08.886Z,62.60
2022-10-05T11:47:16.797Z,61.87
2022-10-05T11:50:10.731Z,61.81
2022-10-05T11:52:46.075Z,61.11
2022-10-05T11:55:32.967Z,61.02
2022-10-05T11:58:07.624Z,61.17
2022-10-05T12:00:42.614Z,60.11
2022-10-05T12:03:31.418Z,61.04
2022-10-05T12:06:17.045Z,61.51
2022-10-05T12:09:13.562Z,62.31
2022-10-05T12:11:46.154Z,62.13
2022-10-05T12:15:02.216Z,62.90
2022-10-05T12:17:46.980Z,62.89
2022-10-05T12:20:20.907Z,64.03
2022-10-05T12:22:56.554Z,63.26
2022-10-05T12:25:32.502Z,63.87
2022-10-05T12:28:05.386Z,64.14
2022-10-05T12:30:59.039Z,65.48
2022-10-05T12:33:52.326Z,65.52
2022-10-05T12:36:52.446Z,64.72
2022-10-05T12:39:27.336Z,64.27
2022-10-05T12:42:09.137Z,65.48
2022-10-05T12:44:44.706Z,64.20
2022-10-05T12:47:17.124Z,64.01
2022-10-05T12:49:55.500Z,64.85
2022-10-05T12:52:40.510Z,64.71
2022-10-05T12:55:13.515Z,65.34
2022-10-05T12:57:53.269Z,65.15
2022-10-05T13:00:23.109Z,65.04
2022-10-05T13:02:51.149Z,65.70
2022-10-05T13:05:46.966Z,65.67
2022-10-05T13:08:33.918Z,66.83
2022-10-05T13:11:28.088Z,68.64
2022-10-05T13:14:11.560Z,67.42
2022-10-05T13:16:55.380Z,67.85
2022-10-05T13:19:31.190Z,67.40
2022-10-05T13:22:19.844Z,68.78
2022-10-05T13:24:54.365Z,68.37
2022-10-05T13:27:27.944Z,69.56
2022-10-05T13:30:08.500Z,69.33
2022-10-05T13:32:46.414Z,68.51
2022-10-05T13:35:28.552Z,68.97
2022-10-05T13:38:29.940Z,68.76
2022-10-05T13:41:14.961Z,69.31
2022-10-05T13:43:49.199Z,68.54
2022-10-05T13:46:48.410Z,69.85
2022-10-05T13:49:21.623Z,69.89
2022-10-05T13:52:07.981Z,69.41
2022-10-05T13:54:34.448Z,70.33
2022-10-05T13:57:14.350Z,70.69
2022-10-05T13:59:53.853Z,70.39
2022-10-05T14:02:27.476Z,70.74
2022-10-05T14:05:17.720Z,70.94
2022-10-05T14:08:02.403Z,71.88
2022-10-05T14:10:37.511Z,71.71
2022-10-05T14:13:46.774Z,71.14
2022-10-05T14:16:13.469Z,71.73
2022-10-05T14:19:16.685Z,72.84
2022-10-05T14:21:50.295Z,72.07
2022-10-05T14:24:44.578Z,71.72
2022-10-05T14:27:28.510Z,73.11
2022-10-05T14:30:13.194Z,73.26
2022-10-05T14:33:17.130Z,74.51
2022-10-05T14:35:45.157Z,73.81
2022-10-05T14:38:29.920Z,74.14
2022-10-05T14:41:11.753Z,73.63
2022-10-05T14:43:38.798Z,75.04
2022-10-05T14:46:28.062Z,73.78
2022-10-05T14:49:21.931Z,74.51
2022-10-05T14:51:50.428Z,75.92
2022-10-05T14:54:35.247Z,74.86
2022-10-05T14:57:04.891Z,75.39
2022-10-05T14:59:56.416Z,75.58
2022-10-05T15:02:57.067Z,76.11
2022-10-05T15:05:31.525Z,76.78
2022-10-05T15:08:09.684Z,77.32
2022-10-05T15:10:55.080Z,77.50
2022-10-05T15:13:25.853Z,76.95
2022-10-05T15:15:55.582Z,77.59
2022-10-05T15:18:38.433Z,78.12
2022-10-05T15:21:31.279Z,78.46
2022-10-05T15:24:03.325Z,78.70
2022-10-05T15:26:52.699Z,78.63
2022-10-05T15:29:27.245Z,78.77
2022-10-05T15:32:01.188Z,78.93
2022-10-05T15:34:33.793Z,79.37
2022-10-05T15:37:32.046Z,79.94
2022-10-05T15:40:03.679Z,79.38
2022-10-05T15:42:38.457Z,80.02
2022-10-05T15:45:53.064Z,79.83
2022-10-05T15:48:29.955Z,80.03
2022-10-05T15:51:15.455Z,81.53
2022-10-05T15:54:36.559Z,81.49
2022-10-05T15:57:16.586Z,81.26
2022-10-05T15:59:56.582Z,81.81
2022-10-05T16:02:30.018Z,82.67
2022-10-05T16:05:12.289Z,82.27
2022-10-05T16:08:04.382Z,82.71
2022-10-05T16:10:37.668Z,83.94
2022-10-05T16:13:05.012Z,84.15
2022-10-05T16:15:41.417Z,84.95
2022-10-05T16:18:31.354Z,85.79
2022-10-05T16:21:39.029Z,86.96
2022-10-05T16:24:26.097Z,88.05
2022-10-05T16:27:06.516Z,88.85
2022-10-05T16:29:35.979Z,89.47
2022-10-05T16:32:21.824Z,89.63
2022-10-05T16:35:08.744Z,90.12
2022-10-05T16:38:05.546Z,91.09
2022-10-05T16:40:41.530Z,91.45
2022-10-05T16:43:26.729Z,92.54
2022-10-05T16:46:31.201Z,92.36
2022-10-05T16:49:27.993Z,93.40
2022-10-05T16:52:01.475Z,94.21
2022-10-05T16:54:31.738Z,94.67
2022-10-05T16:57:11.183Z,94.60
2022-10-05T17:00:08.101Z,94.93
2022-10-05T17:03:10.108Z,95.91
2022-10-05T17:05:44.218Z,95.79
2022-10-05T17:08:33.487Z,96.31
2022-10-05T17:11:10.517Z,96.58
2022-10-05T17:13:52.282Z,97.35
2022-10-05T17:16:42.199Z,97.10
2022-10-05T17:19:22.291Z,97.89
2022-10-05T17:22:00.856Z,97.88
2022-10-05T17:24:49.328Z,98.18
2022-10-05T17:27:32.973Z,97.52
2022-10-05T17:30:27.269Z,98.50
2022-10-05T17:33:04.713Z,98.16
2022-10-05T17:35:50.892Z,98.12
2022-10-05T17:38:22.191Z,99.45
2022-10-05T17:41:05.598Z,99.59
2022-10-05T17:43:33.944Z,99.52
2022-10-05T17:46:03.159Z,100.00
2022-10-05T17:48:54.307Z,100.00
2022-10-05T17:52:02.331Z,100.00
2022-10-05T17:54:49.825Z,100.00
2022-10-05T17:57:27.817Z,100.00
2022-10-05T17:59:55.678Z,100.00
2022-10-05T18:02:38.573Z,100.00
2022-10-05T18:05:05.126Z,100.00
2022-10-05T18:07:36.184Z,100.00
2022-10-05T18:10:11.742Z,100.00
2022-10-05T18:12:50.900Z,100.00
2022-10-05T18:15:23.174Z,100.00
2022-10-05T18:17:53.092Z,100.00
2022-10-05T18:20:26.688Z,99.37
2022-10-05T18:23:09.614Z,99.91
2022-10-05T18:25:48.530Z,100.00
2022-10-05T18:28:21.065Z,99.92
2022-10-05T18:31:26.409Z,100.00
2022-10-05T18:34:08.109Z,99.53
2022-10-05T18:37:19.247Z,100.00
2022-10-05T18:40:24.138Z,100.00
2022-10-05T18:42:55.258Z,100.00
2022-10-05T18:45:49.318Z,99.82
2022-10-05T18:48:27.298Z,100.00
2022-10-05T18:51:10.132Z,100.00
2022-10-05T18:53:45.838Z,100.00
2022-10-05T18:56:29.500Z,99.76
2022-10-05T18:59:32.200Z,99.15
2022-10-05T19:02:15.111Z,99.25
2022-10-05T19:04:41.819Z,98.71
2022-10-05T19:07:17.575Z,98.86
2022-10-05T19:09:59.819Z,98.46
2022-10-05T19:12:50.869Z,98.79
2022-10-05T19:15:17.462Z,98.58
2022-10-05T19:17:54.801Z,97.14
2022-10-05T19:20:46.175Z,96.19
2022-10-05T19:23:19.597Z,95.46
2022-10-05T19:25:59.662Z,96.47
2022-10-05T19:28:50.568Z,95.70
2022-10-05T19:31:30.545Z,95.17
2022-10-05T19:34:16.666Z,95.31
2022-10-05T19:37:09.868Z,94.56
2022-10-05T19:39:53.650Z,95.40
2022-10-05T19:42:37.254Z,94.79
2022-10-05T19:45:03.781Z,94.33
2022-10-05T19:47:56.557Z,93.31
2022-10-05T19:50:23.057Z,94.50
2022-10-05T19:52:57.274Z,94.58
2022-10-05T19:55:34.630Z,93.29
2022-10-05T19:58:01.420Z,94.16
2022-10-05T20:00:34.621Z,93.73
2022-10-05T20:03:18.425Z,94.04
2022-10-05T20:05:45.959Z,93.79
2022-10-05T20:08:18.553Z,93.48
2022-10-05T20:10:46.603Z,92.56
2022-10-05T20:13:21.658Z,91.86
2022-10-05T20:16:51.970Z,91.99
2022-10-05T20:19:34.927Z,92.79
2022-10-05T20:22:23.182Z,92.77
2022-10-05T20:24:52.048Z,92.14
2022-10-05T20:27:36.820Z,92.91
2022-10-05T20:30:04.760Z,93.74
2022-10-05T20:32:31.607Z,93.93
2022-10-05T20:34:58.198Z,94.72
2022-10-05T20:37:25.057Z,94.22
2022-10-05T20:39:52.242Z,94.04
2022-10-05T20:42:20.427Z,94.76
2022-10-05T20:44:47.196Z,95.44
2022-10-05T20:47:13.914Z,95.50
2022-10-05T20:49:44.586Z,95.58
2022-10-05T20:52:15.166Z,95.39
2022-10-05T20:54:42.425Z,94.61
2022-10-05T20:57:09.672Z,95.12
2022-10-05T20:59:37.072Z,95.76
2022-10-05T21:02:04.279Z,96.33
2022-10-05T21:04:40.383Z,96.54
2022-10-05T21:07:07.853Z,97.19
2022-10-05T21:09:34.548Z,97.36
2022-10-05T21:12:01.512Z,97.16
2022-10-05T21:14:30.736Z,96.75
2022-10-05T21:16:57.522Z,95.91
2022-10-05T21:19:24.366Z,96.29
2022-10-05T21:21:51.218Z,96.91
2022-10-05T21:24:18.050Z,95.73
2022-10-05T21:26:45.421Z,95.74
2022-10-05T21:29:13.296Z,94.10
2022-10-05T21:31:40.613Z,93.83
2022-10-05T21:34:07.564Z,94.42
2022-10-05T21:36:34.900Z,94.97
2022-10-05T21:39:01.775Z,95.26
2022-10-05T21:41:28.575Z,94.72
2022-10-05T21:43:55.147Z,94.83
2022-10-05T21:46:25.863Z,94.35
2022-10-05T21:48:54.035Z,95.13
2022-10-05T21:51:24.081Z,94.90
2022-10-05T21:53:55.256Z,95.40
2022-10-05T21:56:24.610Z,96.29
2022-10-05T21:58:52.043Z,95.66
2022-10-05T22:01:22.464Z,96.42
2022-10-05T22:03:49.826Z,95.51
2022-10-05T22:06:16.423Z,95.70
2022-10-05T22:08:43.096Z,94.92
2022-10-05T22:11:12.873Z,94.65
2022-10-05T22:13:46.102Z,94.58
2022-10-05T22:16:14.044Z,95.08
2022-10-05T22:18:41.182Z,95.37
2022-10-05T22:21:11.354Z,95.53
2022-10-05T22:23:42.699Z,95.92
2022-10-05T22:26:12.651Z,96.88
2022-10-05T22:28:39.848Z,95.84
2022-10-05T22:31:08.056Z,95.49
2022-10-05T22:33:35.472Z,96.09
2022-10-05T22:36:02.160Z,96.80
2022-10-05T22:38:30.546Z,96.23
2022-10-05T22:40:57.900Z,96.28
2022-10-05T22:43:27.078Z,96.79
2022-10-05T22:45:54.473Z,97.45
2022-10-05T22:48:21.151Z,97.41
2022-10-05T22:50:48.022Z,97.32
2022-10-05T22:53:15.032Z,96.93
2022-10-05T22:55:41.546Z,97.01
2022-10-05T22:58:08.142Z,97.20
2022-10-05T23:00:57.032Z,97.86
2022-10-05T23:03:21.476Z,98.68
2022-10-05T23:05:48.137Z,98.42
2022-10-05T23:08:16.156Z,97.77
2022-10-05T23:10:43.509Z,97.86
2022-10-05T23:13:10.086Z,98.25
2022-10-05T23:15:36.627Z,97.85
2022-10-05T23:18:03.259Z,97.63
2022-10-05T23:20:29.863Z,98.63
2022-10-05T23:22:56.527Z,98.79
2022-10-05T23:25:23.093Z,99.49
2022-10-05T23:27:49.787Z,99.17
2022-10-05T23:30:16.420Z,100.00
2022-10-05T23:32:44.577Z,99.78
2022-10-05T23:35:12.742Z,100.00
2022-10-05T23:37:44.214Z,100.00
2022-10-05T23:40:13.245Z,99.24
2022-10-05T23:42:42.551Z,99.04
2022-10-05T23:45:11.110Z,98.72
2022-10-05T23:47:38.794Z,98.44
2022-10-05T23:50:07.103Z,97.73
2022-10-05T23:52:34.682Z,97.50
2022-10-05T23:55:02.610Z,97.32
2022-10-05T23:57:29.223Z,97.46
2022-10-05T23:59:56.448Z,98.01
